Terminal Aerodrome Forecast
Issued by NWS Upton, NY

Home | Current Version | Previous Version | Text Only | Print | Product List | Glossary On
Versions: 1 2 3 4 5 6 7 8 9 10 11 12 13 14 15 16 17 18 19 20 21 22 23 24 25 26
665
FTUS41 KOKX 051441 AAB
TAFISP
TAF AMD
KISP 051441Z 0515/0612 25008KT 5SM BR SCT008 BKN015 OVC020
      TEMPO 0515/0516 BKN008
     FM051600 27011KT 6SM BR BKN020 BKN030
     FM051800 28012G17KT P6SM SCT030 BKN050
     FM052100 30010KT P6SM SCT250
     FM060600 33006KT P6SM SKC=

USA.gov is the U.S. government's official web portal to all federal, state and local government web resources and services.